Angle, Utah
Current Conditions -  °F | °C
As of 11:53 PM on Wednesday 22 Oct 2014 (Local Time) from KBCE Reporting Station
Clear Clear  
Wind Chill: 26°   Ceiling: Unl
Heat Index: 32°   Visibility: 10mi
Dew Point: 25°   Wind: 7mph
Humidity: 75%   Direction: 260°W
Pressure: 30.32"   Gusts: NA
Location:  37.9601°N, 112.141°W
Report Text: KBCE 230553Z AUTO 26006KT 10SM CLR 00/M04 A3032 RMK AO2 SLP198 T00001039 10150 20000 51006 TSNO
Loading
Personal Weather Stations






























Interactive Weather Map
Tropical Storm Tracking
New forecast layout! Learn more

10-Day Weather Forecast

Advertisements
Track Severe Weather on mobile